createdAt,value
2022-10-31T00:01:20.605Z,37.83
2022-10-31T00:03:48.457Z,35.53
2022-10-31T00:06:18.979Z,34.80
2022-10-31T00:08:53.716Z,35.55
2022-10-31T00:11:20.179Z,35.35
2022-10-31T00:13:46.677Z,36.53
2022-10-31T00:16:17.730Z,35.15
2022-10-31T00:18:44.521Z,35.30
2022-10-31T00:21:11.183Z,34.58
2022-10-31T00:23:38.411Z,37.72
2022-10-31T00:26:05.910Z,41.80
2022-10-31T00:28:33.016Z,38.70
2022-10-31T00:31:04.732Z,35.53
2022-10-31T00:33:31.508Z,34.30
2022-10-31T00:35:58.060Z,32.75
2022-10-31T00:38:24.524Z,34.10
2022-10-31T00:40:50.988Z,35.55
2022-10-31T00:43:17.561Z,33.00
2022-10-31T00:45:44.775Z,34.35
2022-10-31T00:48:11.790Z,33.30
2022-10-31T00:50:38.634Z,35.28
2022-10-31T00:53:05.130Z,42.30
2022-10-31T00:55:31.647Z,32.80
2022-10-31T00:57:58.470Z,35.05
2022-10-31T01:00:25.385Z,36.38
2022-10-31T01:02:51.971Z,40.40
2022-10-31T01:05:18.710Z,41.33
2022-10-31T01:07:45.227Z,37.23
2022-10-31T01:10:12.455Z,37.80
2022-10-31T01:12:50.219Z,37.22
2022-10-31T01:15:19.935Z,43.08
2022-10-31T01:17:46.681Z,33.92
2022-10-31T01:20:14.799Z,35.50
2022-10-31T01:22:42.982Z,38.90
2022-10-31T01:25:13.414Z,41.08
2022-10-31T01:27:40.166Z,36.53
2022-10-31T01:30:07.154Z,40.90
2022-10-31T01:32:33.738Z,41.13
2022-10-31T01:35:00.274Z,41.70
2022-10-31T01:37:26.934Z,42.60
2022-10-31T01:39:53.527Z,40.00
2022-10-31T01:42:22.353Z,41.13
2022-10-31T01:44:56.971Z,42.73
2022-10-31T01:47:34.701Z,42.72
2022-10-31T01:50:05.586Z,40.53
2022-10-31T01:52:37.341Z,40.33
2022-10-31T01:55:06.065Z,46.45
2022-10-31T01:57:35.237Z,49.60
2022-10-31T02:00:08.039Z,41.45
2022-10-31T02:02:34.815Z,39.22
2022-10-31T02:05:05.539Z,37.25
2022-10-31T02:07:43.710Z,38.75
2022-10-31T02:10:10.854Z,37.87
2022-10-31T02:12:37.494Z,37.10
2022-10-31T02:15:04.852Z,42.97
2022-10-31T02:17:32.623Z,52.50
2022-10-31T02:20:18.822Z,48.38
2022-10-31T02:23:06.512Z,46.47
2022-10-31T02:25:51.749Z,50.85
2022-10-31T02:28:31.158Z,43.95
2022-10-31T02:31:18.951Z,39.90
2022-10-31T02:33:58.990Z,41.80
2022-10-31T02:36:33.831Z,49.83
2022-10-31T02:39:10.945Z,49.75
2022-10-31T02:42:05.297Z,46.45
2022-10-31T02:44:37.649Z,46.97
2022-10-31T02:47:13.414Z,42.88
2022-10-31T02:49:44.368Z,39.73
2022-10-31T02:52:24.843Z,42.03
2022-10-31T02:54:52.107Z,41.30
2022-10-31T02:57:24.630Z,47.58
2022-10-31T02:59:59.283Z,43.88
2022-10-31T03:02:44.599Z,39.30
2022-10-31T03:05:35.918Z,42.28
2022-10-31T03:08:24.192Z,50.15
2022-10-31T03:11:02.615Z,56.22
2022-10-31T03:13:35.186Z,52.53
2022-10-31T03:16:26.500Z,65.97
2022-10-31T03:19:13.549Z,90.05
2022-10-31T03:21:50.455Z,72.97
2022-10-31T03:24:17.748Z,85.80
2022-10-31T03:26:50.689Z,91.80
2022-10-31T03:29:22.265Z,90.77
2022-10-31T03:32:21.475Z,93.15
2022-10-31T03:34:49.290Z,86.45
2022-10-31T03:37:19.633Z,86.75
2022-10-31T03:39:49.275Z,85.82
2022-10-31T03:42:21.733Z,79.83
2022-10-31T03:44:56.062Z,77.18
2022-10-31T03:47:23.133Z,71.25
2022-10-31T03:49:50.046Z,67.22
2022-10-31T03:52:34.721Z,76.78
2022-10-31T03:55:10.889Z,75.37
2022-10-31T03:57:46.151Z,69.25
2022-10-31T04:00:15.548Z,69.53
2022-10-31T04:02:51.067Z,67.65
2022-10-31T04:05:18.953Z,78.22
2022-10-31T04:07:50.161Z,64.30
2022-10-31T04:10:17.668Z,59.35
2022-10-31T04:12:49.232Z,66.72
2022-10-31T04:15:16.037Z,76.50
2022-10-31T04:17:46.080Z,77.20
2022-10-31T04:20:17.226Z,72.97
2022-10-31T04:22:44.013Z,62.60
2022-10-31T04:25:10.550Z,66.95
2022-10-31T04:27:37.823Z,66.28
2022-10-31T04:30:04.708Z,69.38
2022-10-31T04:32:31.306Z,71.03
2022-10-31T04:34:57.776Z,71.13
2022-10-31T04:37:24.317Z,66.25
2022-10-31T04:39:51.122Z,68.13
2022-10-31T04:42:17.603Z,64.68
2022-10-31T04:44:44.226Z,63.80
2022-10-31T04:47:10.798Z,53.45
2022-10-31T04:49:37.327Z,50.45
2022-10-31T04:52:03.975Z,51.08
2022-10-31T04:54:30.501Z,53.25
2022-10-31T04:56:57.037Z,54.67
2022-10-31T04:59:23.635Z,55.25
2022-10-31T05:01:50.299Z,50.75
2022-10-31T05:04:16.783Z,55.25
2022-10-31T05:06:43.367Z,50.83
2022-10-31T05:09:15.149Z,49.37
2022-10-31T05:11:41.723Z,44.95
2022-10-31T05:14:08.333Z,42.97
2022-10-31T05:16:34.867Z,42.22
2022-10-31T05:19:01.408Z,42.90
2022-10-31T05:21:27.999Z,40.27
2022-10-31T05:23:54.575Z,45.90
2022-10-31T05:26:21.097Z,39.83
2022-10-31T05:28:47.604Z,39.67
2022-10-31T05:31:14.858Z,41.35
2022-10-31T05:33:41.424Z,47.43
2022-10-31T05:36:08.219Z,42.63
2022-10-31T05:38:34.675Z,49.67
2022-10-31T05:41:02.079Z,50.25
2022-10-31T05:43:29.729Z,58.33
2022-10-31T05:45:57.426Z,51.67
2022-10-31T05:48:24.080Z,51.45
2022-10-31T05:50:50.811Z,50.03
2022-10-31T05:53:17.681Z,40.47
2022-10-31T05:55:44.479Z,43.03
2022-10-31T05:58:11.919Z,41.97
2022-10-31T06:00:38.922Z,46.47
2022-10-31T06:05:39.575Z,50.17
2022-10-31T06:08:06.273Z,56.90
2022-10-31T06:10:32.786Z,39.23
2022-10-31T06:12:59.273Z,45.00
2022-10-31T06:15:25.914Z,45.72
2022-10-31T06:18:04.739Z,43.03
2022-10-31T06:20:34.779Z,40.45
2022-10-31T06:23:02.161Z,44.77
2022-10-31T06:25:29.485Z,43.35
2022-10-31T06:27:56.899Z,41.60
2022-10-31T06:30:23.432Z,47.22
2022-10-31T06:32:50.721Z,43.88
2022-10-31T06:35:17.947Z,38.70
2022-10-31T06:37:52.072Z,53.03
2022-10-31T06:40:18.611Z,43.47
2022-10-31T06:42:45.200Z,43.05
2022-10-31T06:45:11.721Z,48.97
2022-10-31T06:47:56.759Z,47.33
2022-10-31T06:50:24.832Z,52.60
2022-10-31T06:52:59.042Z,44.90
2022-10-31T06:55:26.896Z,47.17
2022-10-31T06:58:02.021Z,48.97
2022-10-31T07:00:31.329Z,49.77
2022-10-31T07:03:11.254Z,51.35
2022-10-31T07:05:38.057Z,45.40
2022-10-31T07:08:10.948Z,46.30
2022-10-31T07:10:40.503Z,45.65
2022-10-31T07:13:12.323Z,42.53
2022-10-31T07:15:40.822Z,39.67
2022-10-31T07:18:09.573Z,43.35
2022-10-31T07:20:36.487Z,39.42
2022-10-31T07:23:05.091Z,36.90
2022-10-31T07:25:31.904Z,39.73
2022-10-31T07:27:58.805Z,32.92
2022-10-31T07:30:25.609Z,36.17
2022-10-31T07:32:52.191Z,34.47
2022-10-31T07:35:24.987Z,33.33
2022-10-31T07:37:55.747Z,33.47
2022-10-31T07:40:23.961Z,31.17
2022-10-31T07:42:53.023Z,32.47
2022-10-31T07:45:24.103Z,31.65
2022-10-31T07:47:52.328Z,33.15
2022-10-31T07:50:24.680Z,32.07
2022-10-31T07:53:07.626Z,30.98
2022-10-31T07:55:34.778Z,32.58
2022-10-31T07:58:04.481Z,31.40
2022-10-31T08:00:35.562Z,35.35
2022-10-31T08:03:07.337Z,28.43
2022-10-31T08:05:34.805Z,33.15
2022-10-31T08:08:01.929Z,34.33
2022-10-31T08:10:29.849Z,30.10
2022-10-31T08:13:01.334Z,30.23
2022-10-31T08:15:28.343Z,33.33
2022-10-31T08:17:55.160Z,35.75
2022-10-31T08:20:22.987Z,30.58
2022-10-31T08:22:56.544Z,29.55
2022-10-31T08:25:23.781Z,34.83
2022-10-31T08:27:54.994Z,29.73
2022-10-31T08:30:24.484Z,31.60
2022-10-31T08:33:03.181Z,31.77
2022-10-31T08:35:29.685Z,34.22
2022-10-31T08:37:57.843Z,32.72
2022-10-31T08:40:26.035Z,28.60
2022-10-31T08:43:06.356Z,34.78
2022-10-31T08:45:34.592Z,33.22
2022-10-31T08:48:03.581Z,30.77
2022-10-31T08:50:32.500Z,31.75
2022-10-31T08:53:05.940Z,34.27
2022-10-31T08:55:35.355Z,27.98
2022-10-31T08:58:02.959Z,32.40
2022-10-31T09:00:29.967Z,34.28
2022-10-31T09:03:04.837Z,28.67
2022-10-31T09:05:32.153Z,30.07
2022-10-31T09:08:00.490Z,27.80
2022-10-31T09:10:28.993Z,26.85
2022-10-31T09:12:58.994Z,23.80
2022-10-31T09:15:26.957Z,23.10
2022-10-31T09:17:54.069Z,26.43
2022-10-31T09:20:21.222Z,22.50
2022-10-31T09:22:47.811Z,24.10
2022-10-31T09:25:14.903Z,22.60
2022-10-31T09:27:41.417Z,25.38
2022-10-31T09:30:09.246Z,23.27
2022-10-31T09:32:35.701Z,24.77
2022-10-31T09:35:02.359Z,23.67
2022-10-31T09:37:28.990Z,24.15
2022-10-31T09:39:55.523Z,22.65
2022-10-31T09:42:40.769Z,24.10
2022-10-31T09:45:16.076Z,23.63
2022-10-31T09:48:20.932Z,24.70
2022-10-31T09:50:56.937Z,22.08
2022-10-31T09:53:42.107Z,24.83
2022-10-31T09:56:13.933Z,24.40
2022-10-31T09:58:43.938Z,25.25
2022-10-31T10:01:27.113Z,28.50
2022-10-31T10:03:58.803Z,28.48
2022-10-31T10:06:29.478Z,25.85
2022-10-31T10:08:56.989Z,24.37
2022-10-31T10:11:35.442Z,25.80
2022-10-31T10:14:14.072Z,27.98
2022-10-31T10:16:52.652Z,26.15
2022-10-31T10:19:40.293Z,26.13
2022-10-31T10:22:38.205Z,26.97
2022-10-31T10:25:10.556Z,27.83
2022-10-31T10:27:48.819Z,32.17
2022-10-31T10:30:23.886Z,29.48
2022-10-31T10:33:01.556Z,28.50
2022-10-31T10:35:39.079Z,25.83
2022-10-31T10:38:23.045Z,30.65
2022-10-31T10:40:50.090Z,27.48
2022-10-31T10:43:38.694Z,34.28
2022-10-31T10:46:23.697Z,29.38
2022-10-31T10:49:21.097Z,29.63
2022-10-31T10:52:02.660Z,35.05
2022-10-31T10:54:42.073Z,31.08
2022-10-31T10:57:29.843Z,33.35
2022-10-31T10:59:56.635Z,29.45
2022-10-31T11:02:26.025Z,31.50
2022-10-31T11:04:58.282Z,30.00
2022-10-31T11:07:24.797Z,30.30
2022-10-31T11:09:51.446Z,33.28
2022-10-31T11:12:32.917Z,32.28
2022-10-31T11:15:04.931Z,29.83
2022-10-31T11:17:34.828Z,33.03
2022-10-31T11:20:07.385Z,30.17
2022-10-31T11:22:34.049Z,30.25
2022-10-31T11:25:01.334Z,30.77
2022-10-31T11:27:28.084Z,29.87
2022-10-31T11:30:05.772Z,31.40
2022-10-31T11:32:32.647Z,31.00
2022-10-31T11:35:02.598Z,28.15
2022-10-31T11:37:36.124Z,27.42
2022-10-31T11:40:07.782Z,30.27
2022-10-31T11:42:40.842Z,29.45
2022-10-31T11:45:17.620Z,31.55
2022-10-31T11:47:59.652Z,30.90
2022-10-31T11:50:38.262Z,27.08
2022-10-31T11:53:12.837Z,27.17
2022-10-31T11:55:41.220Z,28.88
2022-10-31T11:58:25.939Z,27.33
2022-10-31T12:00:55.378Z,27.60
2022-10-31T12:03:25.196Z,28.15
2022-10-31T12:06:09.151Z,27.63
2022-10-31T12:08:37.553Z,28.67
2022-10-31T12:11:32.058Z,28.33
2022-10-31T12:14:31.147Z,26.63
2022-10-31T12:16:57.580Z,27.73
2022-10-31T12:19:35.995Z,25.43
2022-10-31T12:22:10.227Z,26.08
2022-10-31T12:25:01.262Z,24.42
2022-10-31T12:28:00.319Z,27.25
2022-10-31T12:30:50.273Z,28.70
2022-10-31T12:33:38.997Z,29.80
2022-10-31T12:36:15.422Z,29.92
2022-10-31T12:39:07.322Z,29.25
2022-10-31T12:41:47.266Z,30.38
2022-10-31T12:44:30.815Z,28.30
2022-10-31T12:46:57.481Z,33.20
2022-10-31T12:49:42.440Z,31.35
2022-10-31T12:52:34.889Z,31.92
2022-10-31T12:55:27.316Z,30.30
2022-10-31T12:57:59.509Z,31.02
2022-10-31T13:00:30.400Z,33.63
2022-10-31T13:03:10.476Z,31.77
2022-10-31T13:05:47.312Z,33.70
2022-10-31T13:08:18.125Z,31.15
2022-10-31T13:10:48.949Z,37.30
2022-10-31T13:13:27.688Z,34.43
2022-10-31T13:15:58.563Z,33.90
2022-10-31T13:19:03.598Z,37.33
2022-10-31T13:21:42.496Z,35.40
2022-10-31T13:24:17.415Z,38.08
2022-10-31T13:27:00.232Z,39.27
2022-10-31T13:30:01.650Z,37.53
2022-10-31T13:32:38.195Z,41.17
2022-10-31T13:35:08.628Z,44.80
2022-10-31T13:37:42.745Z,42.20
2022-10-31T13:40:39.048Z,41.63
2022-10-31T13:43:18.009Z,46.33
2022-10-31T13:45:53.021Z,43.10
2022-10-31T13:48:35.590Z,47.20
2022-10-31T13:51:07.203Z,44.58
2022-10-31T13:54:01.011Z,48.73
2022-10-31T13:56:33.888Z,44.85
2022-10-31T13:59:07.917Z,49.13
2022-10-31T14:01:34.963Z,44.13
2022-10-31T14:04:14.748Z,44.88
2022-10-31T14:07:26.169Z,46.03
2022-10-31T14:10:29.653Z,49.33
2022-10-31T14:13:25.665Z,50.10
2022-10-31T14:16:02.885Z,43.78
2022-10-31T14:18:36.185Z,51.38
2022-10-31T14:21:14.425Z,49.27
2022-10-31T14:23:41.640Z,45.53
2022-10-31T14:26:21.900Z,47.72
2022-10-31T14:28:50.874Z,47.30
2022-10-31T14:31:38.856Z,46.80
2022-10-31T14:34:23.810Z,51.60
2022-10-31T14:37:05.832Z,45.30
2022-10-31T14:40:17.861Z,45.20
2022-10-31T14:42:59.030Z,46.65
2022-10-31T14:45:31.670Z,49.28
2022-10-31T14:48:34.143Z,54.10
2022-10-31T14:51:20.399Z,46.85
2022-10-31T14:53:50.246Z,53.05
2022-10-31T14:56:31.385Z,46.40
2022-10-31T14:59:02.185Z,47.90
2022-10-31T15:01:32.295Z,49.27
2022-10-31T15:04:22.228Z,45.10
2022-10-31T15:06:55.049Z,47.85
2022-10-31T15:09:22.690Z,58.67
2022-10-31T15:11:49.273Z,47.13
2022-10-31T15:14:26.448Z,84.03
2022-10-31T15:16:53.215Z,63.60
2022-10-31T15:19:33.215Z,50.83
2022-10-31T15:22:00.222Z,53.55
2022-10-31T15:24:35.519Z,77.75
2022-10-31T15:27:05.200Z,124.23
2022-10-31T15:29:32.431Z,62.80
2022-10-31T15:32:13.919Z,69.10
2022-10-31T15:34:45.164Z,63.67
2022-10-31T15:37:14.654Z,55.70
2022-10-31T15:39:41.749Z,87.23
2022-10-31T15:42:36.419Z,114.60
2022-10-31T15:45:17.005Z,132.95
2022-10-31T15:48:00.103Z,88.90
2022-10-31T15:50:33.415Z,122.10
2022-10-31T15:53:01.556Z,123.30
2022-10-31T15:55:33.190Z,66.57
2022-10-31T15:58:05.593Z,79.28
2022-10-31T16:00:35.177Z,108.53
2022-10-31T16:03:16.605Z,98.28
2022-10-31T16:05:54.936Z,86.20
2022-10-31T16:08:30.689Z,71.47
2022-10-31T16:10:59.102Z,107.43
2022-10-31T16:13:32.114Z,96.07
2022-10-31T16:16:33.452Z,99.25
2022-10-31T16:18:51.016Z,72.97
2022-10-31T16:21:25.055Z,87.35
2022-10-31T16:23:58.169Z,66.30
2022-10-31T16:26:25.895Z,85.13
2022-10-31T16:29:03.239Z,77.68
2022-10-31T16:31:38.347Z,74.23
2022-10-31T16:34:26.382Z,74.22
2022-10-31T16:36:54.224Z,114.95
2022-10-31T16:39:21.078Z,134.63
2022-10-31T16:41:51.519Z,116.25
2022-10-31T16:44:26.832Z,101.90
2022-10-31T16:47:14.783Z,134.80
2022-10-31T16:49:43.205Z,115.68
2022-10-31T16:52:09.748Z,81.07
2022-10-31T16:54:36.324Z,76.80
2022-10-31T16:57:04.876Z,72.87
2022-10-31T16:59:34.198Z,62.47
2022-10-31T17:02:01.983Z,84.95
2022-10-31T17:04:29.448Z,57.42
2022-10-31T17:06:56.014Z,57.20
2022-10-31T17:09:22.756Z,56.83
2022-10-31T17:11:52.183Z,81.22
2022-10-31T17:14:19.524Z,66.20
2022-10-31T17:16:46.014Z,80.20
2022-10-31T17:19:13.081Z,112.10
2022-10-31T17:21:40.595Z,108.13
2022-10-31T17:24:08.990Z,65.30
2022-10-31T17:26:35.552Z,79.20
2022-10-31T17:29:03.483Z,105.78
2022-10-31T17:31:32.895Z,101.65
2022-10-31T17:34:02.592Z,67.50
2022-10-31T17:36:30.767Z,67.53
2022-10-31T17:38:57.424Z,52.92
2022-10-31T17:41:23.958Z,96.43
2022-10-31T17:43:55.679Z,79.57
2022-10-31T17:46:22.428Z,69.53
2022-10-31T17:48:48.941Z,63.63
2022-10-31T17:51:15.487Z,95.93
2022-10-31T17:53:42.026Z,87.82
2022-10-31T17:56:09.712Z,89.63
2022-10-31T17:58:37.873Z,60.33
2022-10-31T18:01:10.515Z,131.57
2022-10-31T18:03:38.224Z,72.55
2022-10-31T18:06:05.393Z,71.15
2022-10-31T18:08:35.735Z,99.05
2022-10-31T18:11:11.013Z,118.07
2022-10-31T18:13:38.851Z,95.80
2022-10-31T18:16:23.728Z,108.45
2022-10-31T18:18:52.683Z,84.82
2022-10-31T18:21:20.205Z,145.48
2022-10-31T18:23:47.736Z,105.87
2022-10-31T18:26:14.325Z,96.15
2022-10-31T18:28:40.801Z,133.07
2022-10-31T18:31:07.353Z,149.13
2022-10-31T18:33:33.866Z,124.93
2022-10-31T18:36:05.907Z,115.03
2022-10-31T18:38:33.477Z,90.20
2022-10-31T18:41:00.003Z,133.50
2022-10-31T18:43:26.640Z,104.40
2022-10-31T18:45:57.799Z,79.32
2022-10-31T18:48:24.956Z,84.60
2022-10-31T18:50:51.645Z,102.13
2022-10-31T18:53:18.199Z,106.90
2022-10-31T18:55:49.088Z,122.90
2022-10-31T18:58:16.981Z,126.55
2022-10-31T19:00:43.707Z,123.83
2022-10-31T19:03:10.267Z,123.80
2022-10-31T19:05:36.778Z,125.88
2022-10-31T19:08:03.659Z,139.05
2022-10-31T19:10:30.225Z,110.85
2022-10-31T19:12:56.712Z,83.27
2022-10-31T19:15:23.184Z,100.80
2022-10-31T19:17:49.852Z,86.30
2022-10-31T19:20:16.491Z,104.20
2022-10-31T19:22:43.328Z,87.70
2022-10-31T19:25:10.965Z,90.43
2022-10-31T19:27:38.535Z,78.72
2022-10-31T19:30:06.726Z,88.60
2022-10-31T19:32:33.640Z,85.15
2022-10-31T19:35:00.391Z,85.95
2022-10-31T19:37:27.029Z,96.40
2022-10-31T19:39:54.132Z,107.80
2022-10-31T19:42:20.687Z,122.00
2022-10-31T19:44:47.211Z,89.07
2022-10-31T19:47:13.814Z,80.65
2022-10-31T19:49:40.361Z,92.07
2022-10-31T19:52:07.204Z,79.72
2022-10-31T19:54:33.722Z,97.85
2022-10-31T19:57:00.211Z,89.43
2022-10-31T19:59:26.710Z,64.72
2022-10-31T20:01:53.233Z,70.33
2022-10-31T20:04:19.928Z,98.03
2022-10-31T20:06:46.509Z,74.80
2022-10-31T20:09:14.666Z,93.82
2022-10-31T20:11:43.166Z,72.63
2022-10-31T20:14:15.849Z,68.70
2022-10-31T20:16:42.945Z,116.25
2022-10-31T20:19:12.263Z,133.13
2022-10-31T20:21:42.632Z,84.85
2022-10-31T20:24:10.729Z,77.75
2022-10-31T20:26:40.580Z,67.93
2022-10-31T20:29:07.621Z,79.43
2022-10-31T20:31:36.465Z,91.75
2022-10-31T20:34:03.561Z,91.90
2022-10-31T20:36:30.888Z,84.68
2022-10-31T20:38:58.473Z,67.43
2022-10-31T20:41:25.452Z,76.93
2022-10-31T20:43:52.539Z,78.90
2022-10-31T20:46:24.836Z,83.88
2022-10-31T20:48:52.068Z,72.50
2022-10-31T20:51:28.236Z,66.20
2022-10-31T20:53:56.821Z,57.70
2022-10-31T20:56:25.808Z,69.30
2022-10-31T20:58:54.264Z,63.63
2022-10-31T21:01:27.037Z,77.57
2022-10-31T21:03:54.639Z,61.20
2022-10-31T21:06:25.447Z,58.85
2022-10-31T21:08:56.174Z,64.38
2022-10-31T21:11:25.310Z,62.05
2022-10-31T21:13:54.478Z,62.95
2022-10-31T21:16:24.319Z,68.73
2022-10-31T21:18:51.922Z,63.63
2022-10-31T21:21:23.373Z,68.18
2022-10-31T21:23:57.690Z,69.72
2022-10-31T21:26:27.241Z,81.68
2022-10-31T21:28:56.392Z,60.40
2022-10-31T21:31:23.559Z,72.75
2022-10-31T21:33:50.220Z,65.18
2022-10-31T21:36:16.798Z,72.32
2022-10-31T21:38:44.091Z,67.22
2022-10-31T21:41:15.656Z,61.13
2022-10-31T21:43:44.250Z,62.55
2022-10-31T21:46:17.754Z,55.65
2022-10-31T21:48:45.025Z,62.78
2022-10-31T21:51:15.586Z,60.47
2022-10-31T21:54:01.392Z,62.63
2022-10-31T21:56:28.310Z,59.75
2022-10-31T21:58:55.690Z,57.53
2022-10-31T22:01:23.775Z,57.03
2022-10-31T22:03:50.465Z,57.67
2022-10-31T22:06:17.232Z,58.07
2022-10-31T22:08:43.915Z,55.88
2022-10-31T22:11:13.626Z,53.35
2022-10-31T22:13:41.363Z,52.28
2022-10-31T22:16:09.891Z,54.47
2022-10-31T22:18:36.795Z,51.63
2022-10-31T22:21:05.792Z,54.38
2022-10-31T22:23:33.103Z,52.10
2022-10-31T22:26:07.324Z,53.03
2022-10-31T22:28:34.946Z,51.50
2022-10-31T22:31:05.963Z,51.40
2022-10-31T22:33:32.698Z,46.92
2022-10-31T22:36:03.667Z,49.05
2022-10-31T22:38:34.394Z,51.10
2022-10-31T22:41:01.939Z,48.00
2022-10-31T22:43:28.409Z,50.53
2022-10-31T22:45:55.949Z,52.80
2022-10-31T22:48:22.510Z,53.35
2022-10-31T22:50:48.987Z,54.65
2022-10-31T22:53:15.822Z,54.05
2022-10-31T22:55:42.462Z,56.63
2022-10-31T22:58:08.933Z,50.95
2022-10-31T23:00:35.665Z,52.35
2022-10-31T23:03:02.205Z,59.35
2022-10-31T23:05:28.695Z,56.30
2022-10-31T23:07:55.177Z,57.27
2022-10-31T23:10:21.703Z,52.45
2022-10-31T23:13:06.996Z,57.28
2022-10-31T23:15:37.666Z,51.05
2022-10-31T23:18:05.168Z,51.67
2022-10-31T23:20:37.583Z,62.23
2022-10-31T23:23:04.602Z,53.38
2022-10-31T23:25:49.884Z,57.35
2022-10-31T23:28:16.426Z,54.88
2022-10-31T23:30:45.488Z,56.90
2022-10-31T23:33:12.070Z,55.87
2022-10-31T23:35:38.607Z,53.92
2022-10-31T23:38:05.258Z,58.13
2022-10-31T23:40:32.153Z,58.22
2022-10-31T23:42:58.819Z,54.30
2022-10-31T23:45:25.602Z,55.07
2022-10-31T23:47:52.084Z,59.78
2022-10-31T23:50:18.832Z,58.20
2022-10-31T23:52:45.305Z,58.03
2022-10-31T23:55:11.774Z,56.63
2022-10-31T23:57:38.239Z,57.23
